Time;durP1;ratioP1;P1;durP2;ratioP2;P2;SDS_P1;SDS_P2;PMS_P1;PMS_P2;Temp;Humidity;BMP_temperature;BMP_pressure;BME280_temperature;BME280_humidity;BME280_pressure;Samples;Min_cycle;Max_cycle;Signal;HPM_P1;HPM_P2
2021/06/29 00:02:14;;;;;;;11.43;10.43;;;;;;;20.69;62.91;100330.22;3867386;28;30461103;-73
2021/06/29 00:04:40;;;;;;;11.43;10.52;;;;;;;20.76;63.06;100332.44;4883612;28;99142;-74
2021/06/29 00:07:07;;;;;;;11.35;10.45;;;;;;;20.63;62.63;100328.84;4900816;28;126031;-73
2021/06/29 00:09:33;;;;;;;11.50;10.50;;;;;;;20.83;62.69;100325.25;4901084;28;98297;-72
2021/06/29 00:11:59;;;;;;;11.55;10.60;;;;;;;20.84;62.63;100320.56;4883700;28;97828;-73
2021/06/29 00:14:26;;;;;;;11.05;10.00;;;;;;;20.35;63.56;100325.84;4900562;28;107656;-76
2021/06/29 00:16:52;;;;;;;12.35;10.93;;;;;;;20.42;63.69;100322.59;4898484;28;114062;-73
2021/06/29 00:19:19;;;;;;;12.02;10.93;;;;;;;20.54;63.88;100319.91;4882718;28;98185;-76
2021/06/29 00:21:46;;;;;;;11.85;10.75;;;;;;;20.69;63.54;100323.97;4900721;28;97884;-77
2021/06/29 00:24:12;;;;;;;11.57;10.57;;;;;;;20.40;63.79;100338.56;4897537;28;111155;-74
2021/06/29 00:26:39;;;;;;;11.27;10.27;;;;;;;20.23;64.88;100340.28;4880899;28;127391;-76
2021/06/29 00:29:05;;;;;;;11.73;10.73;;;;;;;20.26;64.74;100333.34;4881564;28;111797;-74
2021/06/29 00:31:31;;;;;;;12.20;11.05;;;;;;;20.40;64.19;100335.81;4917321;28;123403;-76
2021/06/29 00:33:57;;;;;;;12.60;11.30;;;;;;;20.55;64.43;100329.72;4917674;28;128349;-77
2021/06/29 00:36:23;;;;;;;11.80;10.73;;;;;;;20.55;63.87;100324.25;4916405;28;128174;-76
2021/06/29 00:38:49;;;;;;;11.77;10.68;;;;;;;20.49;64.05;100307.25;4899904;28;126623;-77
2021/06/29 00:41:15;;;;;;;11.77;10.70;;;;;;;20.54;64.28;100320.72;4918545;28;107671;-74
2021/06/29 00:43:50;;;;;;;11.95;10.85;;;;;;;20.51;64.69;100310.44;4903560;28;113964;-77
2021/06/29 00:46:16;;;;;;;12.52;11.32;;;;;;;20.35;64.35;100323.91;4897599;28;113055;-76
2021/06/29 00:48:43;;;;;;;11.77;10.85;;;;;;;20.42;64.85;100325.31;4886950;28;115906;-76
2021/06/29 00:51:14;;;;;;;12.52;11.35;;;;;;;20.23;65.06;100325.81;4901480;28;97932;-76
2021/06/29 00:53:41;;;;;;;12.80;11.60;;;;;;;20.15;65.70;100343.09;4901837;28;110467;-74
2021/06/29 00:56:13;;;;;;;12.85;11.32;;;;;;;19.98;65.86;100346.78;4901413;28;98752;-76
2021/06/29 00:58:43;;;;;;;11.23;10.23;;;;;;;20.07;66.12;100339.31;4919042;28;97733;-75
2021/06/29 01:01:09;;;;;;;12.48;11.38;;;;;;;20.20;66.26;100327.31;4903929;28;98041;-76
2021/06/29 01:03:37;;;;;;;12.43;11.32;;;;;;;20.15;65.61;100334.91;4918625;28;126030;-76
2021/06/29 01:06:06;;;;;;;12.27;11.18;;;;;;;20.21;65.47;100334.38;4904383;28;98474;-74
2021/06/29 01:08:32;;;;;;;13.02;11.50;;;;;;;20.12;65.85;100330.88;4920405;28;98256;-74
2021/06/29 01:10:58;;;;;;;13.10;11.88;;;;;;;20.23;65.38;100339.50;4921846;28;98662;-75
2021/06/29 01:13:39;;;;;;;12.23;11.02;;;;;;;20.21;65.66;100328.09;4904142;28;98637;-76
2021/06/29 01:16:06;;;;;;;12.55;11.35;;;;;;;20.29;65.22;100333.50;4919225;28;98113;-76
2021/06/29 01:18:33;;;;;;;12.23;11.07;;;;;;;20.29;65.48;100336.22;4885015;28;97974;-74
2021/06/29 01:20:59;;;;;;;12.65;11.52;;;;;;;20.33;65.39;100336.34;4902610;28;98161;-74
2021/06/29 01:23:28;;;;;;;12.80;11.68;;;;;;;20.09;65.85;100335.09;4903371;28;98441;-76
2021/06/29 01:26:18;;;;;;;12.52;11.43;;;;;;;20.19;66.32;100322.16;4902350;28;99105;-74
2021/06/29 01:31:26;;;;;;;12.27;11.33;;;;;;;19.83;66.84;100343.50;4900570;28;98198;-76
2021/06/29 01:33:52;;;;;;;13.05;11.95;;;;;;;19.71;67.32;100332.47;4882886;28;128624;-74
2021/06/29 01:36:20;;;;;;;13.15;12.05;;;;;;;19.88;66.68;100337.03;4899700;28;126575;-76
2021/06/29 01:38:46;;;;;;;13.93;12.65;;;;;;;19.74;67.02;100344.69;4914789;28;107202;-74
2021/06/29 01:41:15;;;;;;;13.80;12.50;;;;;;;19.46;68.06;100352.56;4888104;28;97838;-77
2021/06/29 01:43:48;;;;;;;13.52;12.43;;;;;;;19.52;67.79;100346.53;4904054;28;98362;-76
2021/06/29 01:46:16;;;;;;;13.23;12.02;;;;;;;19.46;67.99;100342.41;4922413;28;97744;-74
2021/06/29 01:48:50;;;;;;;13.20;12.02;;;;;;;19.48;68.52;100348.34;4903817;28;98222;-76
2021/06/29 01:51:16;;;;;;;13.07;11.98;;;;;;;19.54;68.00;100352.50;4921384;28;112363;-75
2021/06/29 01:53:42;;;;;;;13.80;12.40;;;;;;;19.28;69.14;100349.09;4905063;28;108201;-75
2021/06/29 01:56:14;;;;;;;13.30;12.10;;;;;;;18.88;70.41;100342.00;4901809;28;100208;-75
2021/06/29 01:58:50;;;;;;;14.10;12.80;;;;;;;19.22;69.84;100339.50;4885421;28;98179;-74
2021/06/29 02:01:17;;;;;;;13.30;12.15;;;;;;;19.30;69.37;100346.84;4902501;28;97860;-76
2021/06/29 02:03:43;;;;;;;13.95;12.73;;;;;;;18.97;70.24;100352.09;4900719;28;118517;-76
2021/06/29 02:06:09;;;;;;;14.07;12.68;;;;;;;18.78;70.92;100361.44;4909201;28;128446;-77
2021/06/29 02:08:35;;;;;;;14.13;12.93;;;;;;;19.00;70.22;100365.09;4918641;28;127061;-76
2021/06/29 02:11:01;;;;;;;13.70;12.60;;;;;;;18.86;69.77;100359.81;4904620;28;98070;-76
2021/06/29 02:13:27;;;;;;;15.20;13.80;;;;;;;18.56;70.65;100367.91;4917305;28;129345;-76
2021/06/29 02:15:55;;;;;;;14.77;13.48;;;;;;;18.61;70.90;100354.06;4902133;28;128149;-75
2021/06/29 02:18:21;;;;;;;14.52;13.25;;;;;;;18.80;70.15;100350.22;4920855;28;98798;-76
2021/06/29 02:20:49;;;;;;;14.60;13.38;;;;;;;18.73;70.20;100358.09;4902732;28;98205;-76
2021/06/29 02:23:15;;;;;;;14.88;13.68;;;;;;;18.78;70.13;100358.72;4903760;28;99216;-75
2021/06/29 02:25:41;;;;;;;15.15;13.85;;;;;;;18.85;69.82;100360.97;4903138;28;98914;-75
2021/06/29 02:28:07;;;;;;;15.00;13.70;;;;;;;18.76;70.04;100369.19;4920206;28;127603;-76
2021/06/29 02:30:33;;;;;;;15.98;14.68;;;;;;;18.80;69.66;100372.06;4885541;28;120524;-77
2021/06/29 02:32:59;;;;;;;15.40;14.00;;;;;;;19.00;69.67;100374.09;4885462;28;120122;-74
2021/06/29 02:35:26;;;;;;;15.07;13.77;;;;;;;19.05;68.98;100378.56;4899556;28;120978;-74
2021/06/29 02:37:52;;;;;;;15.60;14.10;;;;;;;18.85;69.89;100372.69;4883504;28;99026;-74
2021/06/29 02:40:18;;;;;;;14.77;13.48;;;;;;;18.92;69.61;100372.19;4900592;28;118859;-76
2021/06/29 02:42:44;;;;;;;15.10;13.70;;;;;;;18.91;69.96;100367.88;4900818;28;111203;-74
2021/06/29 02:45:16;;;;;;;14.60;13.20;;;;;;;18.99;69.55;100366.25;4899228;28;126070;-74
2021/06/29 02:47:42;;;;;;;15.60;14.13;;;;;;;19.11;69.37;100363.63;4904717;28;97924;-74
2021/06/29 02:50:09;;;;;;;15.23;13.80;;;;;;;19.05;69.56;100364.91;4920890;28;97923;-74
2021/06/29 02:52:36;;;;;;;15.60;14.10;;;;;;;19.16;69.41;100368.09;4917450;28;112483;-74
2021/06/29 02:55:04;;;;;;;14.25;13.00;;;;;;;19.13;69.12;100364.09;4895190;28;98628;-74
2021/06/29 02:57:30;;;;;;;14.82;13.48;;;;;;;19.10;69.46;100367.50;4899203;28;97752;-74
2021/06/29 02:59:56;;;;;;;14.15;12.85;;;;;;;19.14;69.26;100365.72;4899931;28;122623;-74
2021/06/29 03:02:22;;;;;;;14.63;13.35;;;;;;;19.05;69.78;100360.25;4894176;28;126416;-74
2021/06/29 03:04:49;;;;;;;13.68;12.55;;;;;;;19.10;69.65;100357.38;4918633;28;97940;-74
2021/06/29 03:07:15;;;;;;;13.98;12.68;;;;;;;19.23;70.08;100350.06;4903116;28;97943;-74
2021/06/29 03:09:41;;;;;;;13.48;12.38;;;;;;;19.31;69.25;100345.69;4902003;28;123095;-74
2021/06/29 03:12:08;;;;;;;14.15;13.00;;;;;;;19.32;69.19;100360.97;4918205;28;128532;-76
2021/06/29 03:14:35;;;;;;;15.02;13.82;;;;;;;19.03;69.50;100362.53;4869796;28;98756;-75
2021/06/29 03:17:03;;;;;;;15.75;14.35;;;;;;;19.05;69.73;100364.91;4883632;28;97818;-76
2021/06/29 03:19:34;;;;;;;14.55;13.25;;;;;;;19.23;69.29;100358.28;4881959;28;97873;-75
2021/06/29 03:22:00;;;;;;;14.65;13.35;;;;;;;19.41;69.09;100353.50;4899040;28;109737;-74
2021/06/29 03:24:27;;;;;;;14.45;13.25;;;;;;;19.46;68.73;100358.03;4898283;28;114959;-76
2021/06/29 03:26:54;;;;;;;15.18;13.68;;;;;;;19.47;68.60;100357.69;4898447;28;98388;-74
2021/06/29 03:29:20;;;;;;;14.73;13.50;;;;;;;19.60;68.63;100359.38;4901976;28;102776;-74
2021/06/29 03:31:46;;;;;;;14.93;13.63;;;;;;;19.25;68.88;100357.94;4902300;28;98670;-74
2021/06/29 03:34:12;;;;;;;15.07;13.68;;;;;;;19.18;68.87;100363.94;4902327;28;98542;-76
2021/06/29 03:36:38;;;;;;;15.80;14.50;;;;;;;19.22;69.12;100353.16;4920852;28;98652;-74
2021/06/29 03:39:05;;;;;;;15.20;13.70;;;;;;;19.37;69.13;100353.41;4886068;28;98040;-76
2021/06/29 03:41:31;;;;;;;14.85;13.55;;;;;;;19.42;68.80;100354.34;4918048;28;110510;-74
2021/06/29 03:43:58;;;;;;;15.40;14.00;;;;;;;19.36;69.13;100357.25;4869739;28;100191;-76
2021/06/29 03:46:24;;;;;;;14.68;13.48;;;;;;;19.33;69.78;100357.09;4920800;28;98104;-76
2021/06/29 03:48:50;;;;;;;15.80;14.50;;;;;;;19.31;69.73;100354.69;4900534;28;122223;-77
2021/06/29 03:51:16;;;;;;;15.75;14.35;;;;;;;19.44;69.37;100355.59;4884146;28;124943;-76
2021/06/29 03:53:42;;;;;;;16.17;14.75;;;;;;;19.48;69.52;100361.22;4919152;28;99172;-76
2021/06/29 03:56:23;;;;;;;15.23;13.82;;;;;;;19.61;69.24;100355.56;4917804;28;114607;-76
2021/06/29 03:59:01;;;;;;;14.90;13.50;;;;;;;19.61;68.48;100352.81;4887468;28;98236;-74
2021/06/29 04:01:28;;;;;;;15.88;14.27;;;;;;;19.58;68.52;100349.91;4901261;28;97851;-76
2021/06/29 04:03:54;;;;;;;16.23;14.73;;;;;;;19.35;68.96;100355.66;4881013;28;97886;-77
2021/06/29 04:06:32;;;;;;;16.60;15.20;;;;;;;19.56;68.39;100352.97;4883195;28;97777;-77
2021/06/29 04:08:58;;;;;;;17.02;15.43;;;;;;;19.67;68.16;100353.41;4899980;28;97889;-74
2021/06/29 04:11:25;;;;;;;16.98;15.50;;;;;;;19.83;67.46;100357.16;4866287;28;97995;-76
2021/06/29 04:13:51;;;;;;;16.45;15.05;;;;;;;19.87;67.64;100354.56;4898958;28;118962;-78
2021/06/29 04:16:17;;;;;;;16.25;14.77;;;;;;;19.93;67.00;100350.53;4881978;28;125643;-77
2021/06/29 04:18:44;;;;;;;15.93;14.57;;;;;;;19.77;67.40;100346.78;4900089;28;97800;-74
2021/06/29 04:21:10;;;;;;;17.23;15.60;;;;;;;19.87;67.70;100351.84;4881791;28;98654;-77
2021/06/29 04:23:36;;;;;;;16.63;15.23;;;;;;;20.08;66.98;100349.09;4898539;28;98431;-78
2021/06/29 04:26:02;;;;;;;16.85;15.27;;;;;;;19.93;67.04;100347.78;4909974;28;98417;-77
2021/06/29 04:28:29;;;;;;;16.52;15.13;;;;;;;19.90;66.80;100355.84;4901127;28;112485;-74
2021/06/29 04:30:55;;;;;;;16.05;14.65;;;;;;;19.79;67.34;100358.16;4919807;28;98178;-74
2021/06/29 04:33:21;;;;;;;16.15;14.85;;;;;;;19.94;67.19;100354.84;4885568;28;126614;-77
2021/06/29 04:35:47;;;;;;;16.20;14.70;;;;;;;19.88;66.67;100353.44;4901153;28;100120;-74
2021/06/29 04:38:13;;;;;;;16.02;14.73;;;;;;;20.16;66.67;100348.25;4869638;28;102763;-77
2021/06/29 04:40:39;;;;;;;16.35;14.95;;;;;;;20.25;66.67;100351.72;4885392;28;98916;-77
2021/06/29 04:43:05;;;;;;;16.08;14.55;;;;;;;20.51;65.79;100356.19;4884248;28;128139;-77
2021/06/29 04:45:31;;;;;;;16.77;15.18;;;;;;;20.76;65.65;100359.81;4902277;28;128004;-79
2021/06/29 04:47:57;;;;;;;16.52;15.10;;;;;;;21.05;64.80;100353.34;4902793;28;123042;-78
2021/06/29 04:50:24;;;;;;;15.48;14.18;;;;;;;20.91;64.82;100356.44;4869552;28;97778;-79
2021/06/29 04:52:50;;;;;;;15.52;14.15;;;;;;;21.12;64.73;100350.84;4918536;28;125832;-78
2021/06/29 04:55:16;;;;;;;15.38;13.98;;;;;;;21.13;64.62;100348.91;4872130;28;98093;-78
2021/06/29 04:57:43;;;;;;;15.32;13.93;;;;;;;21.13;64.62;100349.72;4888753;28;98108;-77
2021/06/29 05:00:11;;;;;;;15.27;13.90;;;;;;;21.29;64.31;100345.16;4904103;28;98678;-79
2021/06/29 05:02:38;;;;;;;15.13;13.73;;;;;;;21.31;64.25;100347.56;4904331;28;99038;-78
2021/06/29 05:05:05;;;;;;;15.00;13.70;;;;;;;21.34;64.23;100349.66;4872780;28;100111;-77
2021/06/29 05:07:31;;;;;;;15.10;13.65;;;;;;;21.56;63.91;100342.91;4904847;28;97805;-77
2021/06/29 05:09:58;;;;;;;14.48;13.18;;;;;;;21.56;63.99;100346.44;4919304;28;128695;-79
2021/06/29 05:12:24;;;;;;;14.20;13.00;;;;;;;21.68;63.90;100345.63;4912663;28;98339;-77
2021/06/29 05:14:50;;;;;;;14.23;13.02;;;;;;;21.68;64.10;100336.59;4884185;28;111326;-79
2021/06/29 05:17:16;;;;;;;13.98;12.80;;;;;;;21.63;64.19;100345.06;4901138;28;117011;-79
2021/06/29 05:19:42;;;;;;;13.98;12.80;;;;;;;21.84;63.72;100348.44;4899681;28;130144;-77
2021/06/29 05:22:08;;;;;;;14.38;13.05;;;;;;;21.86;63.92;100351.66;4883824;28;128216;-79
2021/06/29 05:24:34;;;;;;;13.05;11.85;;;;;;;21.74;64.66;100351.69;4899442;28;127616;-77
2021/06/29 05:27:01;;;;;;;12.88;11.80;;;;;;;21.80;64.35;100348.34;4904589;28;97965;-79
2021/06/29 05:29:27;;;;;;;13.02;11.73;;;;;;;21.98;64.19;100359.06;4920056;28;127710;-77
2021/06/29 05:31:53;;;;;;;12.88;11.57;;;;;;;22.17;63.52;100361.22;4903279;28;128425;-77
2021/06/29 05:34:19;;;;;;;13.02;11.77;;;;;;;22.23;63.50;100355.13;4903427;28;97879;-77
2021/06/29 05:36:45;;;;;;;12.48;11.20;;;;;;;22.51;62.48;100357.88;4918690;28;124085;-79
2021/06/29 05:39:15;;;;;;;12.35;11.23;;;;;;;22.41;62.53;100352.09;4919112;28;130342;-77
2021/06/29 05:41:41;;;;;;;11.15;10.20;;;;;;;22.77;61.61;100349.16;4883663;28;99019;-79
2021/06/29 05:44:07;;;;;;;10.73;9.63;;;;;;;22.86;61.49;100350.94;4883504;28;120168;-79
2021/06/29 05:46:33;;;;;;;10.35;9.35;;;;;;;22.87;61.39;100347.03;4868251;28;107247;-77
2021/06/29 05:49:01;;;;;;;11.07;9.95;;;;;;;23.17;60.73;100341.97;4899831;28;125631;-79
2021/06/29 05:51:27;;;;;;;10.40;9.40;;;;;;;23.33;60.49;100348.25;4903067;28;98841;-77
2021/06/29 05:53:53;;;;;;;10.73;9.02;;;;;;;23.70;59.37;100342.47;4884252;28;127442;-79
2021/06/29 05:56:19;;;;;;;9.65;8.50;;;;;;;25.12;54.38;100339.00;4921408;28;102799;-77
2021/06/29 05:58:45;;;;;;;9.60;6.82;;;;;;;25.71;52.36;100337.53;4903232;28;98766;-77
2021/06/29 06:01:11;;;;;;;6.85;6.05;;;;;;;24.65;55.26;100331.06;4918766;28;128448;-78
2021/06/29 06:03:37;;;;;;;7.13;5.68;;;;;;;24.40;56.23;100331.34;4920337;28;128128;-77
2021/06/29 06:06:04;;;;;;;6.75;4.97;;;;;;;24.31;56.29;100329.97;4902576;28;123005;-79
2021/06/29 06:08:30;;;;;;;5.40;4.93;;;;;;;23.73;57.63;100325.22;4902349;28;106202;-77
2021/06/29 06:10:56;;;;;;;5.65;5.15;;;;;;;23.43;58.25;100327.66;4902751;28;128122;-78
2021/06/29 06:13:22;;;;;;;5.47;4.75;;;;;;;22.77;60.43;100318.94;4918888;28;116963;-78
2021/06/29 06:15:49;;;;;;;5.15;4.57;;;;;;;22.68;60.86;100321.06;4919312;28;98078;-76
2021/06/29 06:18:15;;;;;;;6.38;5.00;;;;;;;22.94;59.77;100317.84;4919182;28;98823;-76
2021/06/29 06:20:41;;;;;;;5.28;4.53;;;;;;;22.83;60.31;100321.44;4901679;28;128125;-78
2021/06/29 06:23:08;;;;;;;7.90;4.38;;;;;;;22.72;60.04;100313.72;4885860;28;126159;-77
2021/06/29 06:25:34;;;;;;;5.38;4.38;;;;;;;22.68;60.92;100320.28;4893539;28;97861;-76
2021/06/29 06:28:01;;;;;;;4.85;4.40;;;;;;;22.82;60.45;100320.63;4884008;28;126963;-78
2021/06/29 06:30:27;;;;;;;5.07;4.63;;;;;;;22.46;60.82;100311.44;4900867;28;99004;-76
2021/06/29 06:32:53;;;;;;;7.05;4.97;;;;;;;22.60;60.72;100302.81;4882992;28;127607;-77
2021/06/29 06:35:19;;;;;;;6.82;4.55;;;;;;;22.42;61.40;100301.53;4883532;28;109839;-76
2021/06/29 06:37:45;;;;;;;7.82;4.50;;;;;;;22.51;61.89;100308.44;4902722;28;97755;-76
2021/06/29 06:40:12;;;;;;;6.93;4.35;;;;;;;22.65;61.36;100310.78;4886837;28;100425;-75
2021/06/29 06:42:38;;;;;;;6.10;4.72;;;;;;;22.25;62.01;100303.44;4870240;28;102533;-76
2021/06/29 06:45:06;;;;;;;4.72;3.97;;;;;;;22.39;61.84;100307.72;4887088;28;98063;-78
2021/06/29 06:47:32;;;;;;;6.50;4.38;;;;;;;22.12;62.83;100306.53;4920003;28;98138;-78
2021/06/29 06:49:58;;;;;;;6.80;4.47;;;;;;;22.16;62.93;100315.69;4920069;28;126701;-77
2021/06/29 06:52:25;;;;;;;8.90;3.97;;;;;;;22.04;62.62;100311.03;4902025;28;98127;-78
2021/06/29 06:54:51;;;;;;;5.75;4.38;;;;;;;22.41;62.02;100308.19;4919819;28;122580;-76
2021/06/29 06:57:17;;;;;;;6.53;3.97;;;;;;;22.31;62.38;100309.47;4885623;28;128028;-78
2021/06/29 06:59:43;;;;;;;6.20;3.60;;;;;;;22.42;62.21;100309.75;4919482;28;126376;-78
2021/06/29 07:02:09;;;;;;;4.43;3.65;;;;;;;22.69;60.80;100306.19;4910012;28;126091;-76
2021/06/29 07:04:35;;;;;;;4.38;3.53;;;;;;;22.94;60.15;100303.28;4866226;28;121407;-78
2021/06/29 07:07:02;;;;;;;4.75;3.15;;;;;;;23.24;59.60;100311.91;4898759;28;127825;-78
2021/06/29 07:09:28;;;;;;;6.22;3.45;;;;;;;23.63;58.46;100299.03;4901954;28;104327;-76
2021/06/29 07:11:54;;;;;;;7.60;3.80;;;;;;;23.77;57.52;100298.56;4899410;28;98085;-76
2021/06/29 07:14:20;;;;;;;4.65;3.30;;;;;;;24.02;56.42;100299.13;4883143;28;97939;-78
2021/06/29 07:16:46;;;;;;;5.85;3.60;;;;;;;24.02;56.61;100301.88;4899456;28;127510;-78
2021/06/29 07:19:12;;;;;;;4.13;3.35;;;;;;;24.74;55.76;100290.28;4898376;28;128663;-76
2021/06/29 07:21:39;;;;;;;7.32;3.30;;;;;;;25.16;53.27;100284.69;4851520;28;99090;-78
2021/06/29 07:24:06;;;;;;;8.35;3.70;;;;;;;25.39;53.19;100289.38;4866753;28;102715;-78
2021/06/29 07:26:32;;;;;;;6.80;3.30;;;;;;;25.22;53.95;100291.47;4900162;28;112848;-79
2021/06/29 07:28:58;;;;;;;4.45;3.13;;;;;;;25.16;53.67;100297.69;4881539;28;125642;-79
2021/06/29 07:31:24;;;;;;;4.50;3.40;;;;;;;24.87;54.94;100296.38;4884486;28;98877;-77
2021/06/29 07:33:50;;;;;;;8.82;3.33;;;;;;;24.89;54.01;100292.09;4885763;28;123758;-77
2021/06/29 07:36:17;;;;;;;5.15;2.95;;;;;;;24.71;55.48;100296.50;4885411;28;97914;-77
2021/06/29 07:38:43;;;;;;;3.83;3.20;;;;;;;24.57;55.49;100304.53;4901885;28;102319;-77
2021/06/29 07:41:11;;;;;;;4.47;3.28;;;;;;;24.08;56.37;100302.38;4920000;28;98717;-75
2021/06/29 07:43:37;;;;;;;4.22;3.40;;;;;;;23.72;58.01;100299.66;4902485;28;98062;-75
2021/06/29 07:46:03;;;;;;;4.30;3.42;;;;;;;24.39;57.15;100306.94;4900546;28;126998;-75
2021/06/29 07:48:29;;;;;;;4.28;3.28;;;;;;;24.55;56.88;100304.09;4915237;28;127835;-77
2021/06/29 07:50:55;;;;;;;7.85;3.05;;;;;;;24.60;56.81;100304.59;4898813;28;108320;-75
2021/06/29 07:53:22;;;;;;;5.90;3.20;;;;;;;24.43;56.86;100294.03;4885279;28;98226;-75
2021/06/29 07:55:51;;;;;;;7.03;2.95;;;;;;;24.05;57.68;100308.59;4914426;28;126248;-75
2021/06/29 07:58:17;;;;;;;4.15;3.08;;;;;;;23.90;57.94;100302.00;4917977;28;98503;-77
2021/06/29 08:00:45;;;;;;;4.78;3.00;;;;;;;24.40;57.29;100297.50;4919824;28;104599;-77
2021/06/29 08:03:11;;;;;;;7.63;3.08;;;;;;;24.52;56.24;100304.81;4885540;28;98120;-77
2021/06/29 08:05:37;;;;;;;5.57;3.28;;;;;;;24.74;55.82;100302.09;4885776;28;98608;-76
2021/06/29 08:08:06;;;;;;;5.75;3.55;;;;;;;25.33;54.04;100305.44;4882825;28;98544;-76
2021/06/29 08:10:33;;;;;;;5.07;3.30;;;;;;;26.33;52.13;100301.28;4883721;28;98608;-76
2021/06/29 08:12:59;;;;;;;5.43;3.13;;;;;;;26.54;50.71;100308.22;4886111;28;102764;-75
2021/06/29 08:15:27;;;;;;;4.05;2.83;;;;;;;25.81;53.08;100308.50;4884452;28;127178;-78
2021/06/29 08:17:53;;;;;;;3.63;2.58;;;;;;;25.43;53.17;100310.34;4889501;28;98167;-78
2021/06/29 08:20:19;;;;;;;6.28;2.90;;;;;;;25.69;53.70;100308.72;4920719;28;98190;-75
2021/06/29 08:22:45;;;;;;;4.70;2.70;;;;;;;25.90;51.93;100306.28;4904656;28;108320;-75
2021/06/29 08:25:11;;;;;;;4.40;2.70;;;;;;;26.87;51.04;100307.34;4922890;28;98589;-77
2021/06/29 08:27:38;;;;;;;4.35;2.60;;;;;;;27.24;49.01;100312.03;4920617;28;102919;-75
2021/06/29 08:30:07;;;;;;;4.78;2.47;;;;;;;27.14;49.59;100319.84;4904488;28;97845;-75
2021/06/29 08:32:33;;;;;;;6.10;2.65;;;;;;;28.38;45.15;100330.06;4914094;28;98037;-75
2021/06/29 08:34:59;;;;;;;6.68;2.72;;;;;;;29.70;43.14;100348.00;4869747;28;100672;-79
2021/06/29 08:37:25;;;;;;;4.88;2.88;;;;;;;28.56;45.11;100345.94;4903492;28;98704;-75
2021/06/29 08:39:52;;;;;;;3.47;2.10;;;;;;;28.25;46.01;100336.31;4901675;28;127556;-79
2021/06/29 08:42:20;;;;;;;3.63;2.10;;;;;;;28.02;46.18;100325.53;4885065;28;97773;-73
2021/06/29 08:44:46;;;;;;;3.95;2.10;;;;;;;27.61;47.53;100325.69;4885911;28;97915;-76
2021/06/29 08:47:12;;;;;;;3.42;2.00;;;;;;;27.46;47.64;100332.31;4886289;28;100196;-75
2021/06/29 08:49:38;;;;;;;3.40;2.30;;;;;;;26.97;48.30;100339.03;4885843;28;99118;-78
2021/06/29 08:52:06;;;;;;;2.53;2.33;;;;;;;26.63;47.85;100328.03;4868621;28;97880;-74
2021/06/29 08:54:32;;;;;;;3.80;2.30;;;;;;;25.82;50.35;100334.13;4903785;28;98375;-75
2021/06/29 08:56:58;;;;;;;2.38;1.95;;;;;;;26.42;51.28;100323.84;4922473;28;98113;-78
2021/06/29 08:59:25;;;;;;;2.67;2.00;;;;;;;26.36;50.44;100319.03;4921216;28;97957;-77
2021/06/29 09:01:51;;;;;;;3.88;2.10;;;;;;;26.23;50.53;100317.72;4918628;28;106931;-76
2021/06/29 09:04:56;;;;;;;4.60;1.80;;;;;;;26.64;50.67;100316.59;4902707;28;128018;-76
2021/06/29 09:07:27;;;;;;;3.08;1.83;;;;;;;26.77;50.18;100314.38;4904580;28;100447;-78
2021/06/29 09:09:55;;;;;;;3.55;1.70;;;;;;;27.28;48.93;100305.34;4894849;28;98003;-78
2021/06/29 09:12:49;;;;;;;5.82;1.85;;;;;;;27.89;47.03;100303.72;4918856;28;98359;-74
2021/06/29 09:15:28;;;;;;;2.92;1.67;;;;;;;28.96;45.14;100314.28;4911494;28;98141;-76
2021/06/29 09:18:06;;;;;;;4.32;1.73;;;;;;;28.99;44.00;100315.53;4903002;28;98560;-76
2021/06/29 09:20:53;;;;;;;3.25;2.30;;;;;;;28.30;46.18;100322.09;4899831;28;98840;-79
2021/06/29 09:23:25;;;;;;;4.15;2.05;;;;;;;27.32;47.77;100311.69;4916550;28;97773;-76
2021/06/29 09:25:58;;;;;;;2.10;1.85;;;;;;;27.69;47.44;100307.16;4885923;28;98597;-78
2021/06/29 09:28:28;;;;;;;3.53;2.00;;;;;;;27.37;48.64;100302.22;4919384;28;98611;-78
2021/06/29 09:31:04;;;;;;;4.47;2.40;;;;;;;27.28;47.57;100307.31;4900517;28;98127;-76
2021/06/29 09:33:36;;;;;;;3.25;2.83;;;;;;;26.92;48.94;100301.47;4901017;28;97834;-76
2021/06/29 09:36:06;;;;;;;3.72;2.35;;;;;;;26.55;49.86;100296.78;4902672;28;98177;-75
2021/06/29 09:38:37;;;;;;;4.07;2.70;;;;;;;27.42;47.23;100285.25;4884257;28;101640;-75
2021/06/29 09:41:14;;;;;;;3.45;2.80;;;;;;;27.78;46.13;100288.25;4883220;28;97755;-77
2021/06/29 09:43:51;;;;;;;3.10;2.80;;;;;;;28.36;45.71;100281.72;4900976;28;97916;-75
2021/06/29 09:46:19;;;;;;;5.50;2.95;;;;;;;29.49;43.30;100276.63;4887059;28;98390;-78
2021/06/29 09:48:58;;;;;;;3.67;3.10;;;;;;;29.75;42.50;100284.53;4903726;28;100858;-78
2021/06/29 09:51:31;;;;;;;4.15;2.83;;;;;;;29.11;42.99;100274.31;4919592;28;99590;-77
2021/06/29 09:54:06;;;;;;;4.72;3.00;;;;;;;28.94;44.48;100272.31;4883815;28;97928;-76
2021/06/29 09:56:42;;;;;;;4.38;3.22;;;;;;;28.18;45.98;100273.38;4899667;28;97783;-78
2021/06/29 09:59:18;;;;;;;4.97;3.05;;;;;;;28.27;45.20;100270.25;4885321;28;100347;-78
2021/06/29 10:01:44;;;;;;;3.53;3.22;;;;;;;28.99;44.97;100258.06;4889637;28;98380;-77
2021/06/29 10:04:11;;;;;;;3.40;3.10;;;;;;;30.13;41.36;100254.16;4903042;28;98075;-78
2021/06/29 10:06:39;;;;;;;3.78;2.70;;;;;;;30.08;43.36;100255.38;4911739;28;98589;-76
2021/06/29 10:09:11;;;;;;;3.03;2.83;;;;;;;32.24;38.01;100266.13;4881644;28;111266;-78
2021/06/29 10:11:46;;;;;;;7.50;3.20;;;;;;;32.07;37.13;100256.00;4914857;28;110673;-76
2021/06/29 10:14:14;;;;;;;4.22;3.15;;;;;;;31.77;37.28;100250.00;4885822;28;98179;-77
2021/06/29 10:16:45;;;;;;;3.63;2.97;;;;;;;30.19;41.66;100247.03;4883724;28;101585;-78
2021/06/29 10:21:48;;;;;;;2.53;2.22;;;;;;;29.47;44.57;100229.03;4902478;28;98019;-77
2021/06/29 10:24:20;;;;;;;2.60;2.20;;;;;;;29.36;43.91;100229.09;4902535;28;98318;-77
2021/06/29 10:26:48;;;;;;;3.10;2.03;;;;;;;29.62;43.63;100221.47;4884554;28;99841;-77
2021/06/29 10:29:15;;;;;;;3.25;2.13;;;;;;;30.73;40.36;100216.88;4867370;28;100143;-77
2021/06/29 10:31:46;;;;;;;5.93;2.30;;;;;;;30.68;40.32;100222.06;4884242;28;98312;-77
2021/06/29 10:34:13;;;;;;;2.55;2.35;;;;;;;31.60;38.68;100216.78;4903213;28;98434;-78
2021/06/29 10:36:47;;;;;;;2.83;1.90;;;;;;;32.49;36.88;100227.50;4885220;28;100806;-77
2021/06/29 10:39:16;;;;;;;3.10;2.10;;;;;;;30.89;41.73;100224.69;4899740;28;100210;-77
2021/06/29 10:42:00;;;;;;;3.45;2.65;;;;;;;30.29;41.52;100214.78;4867679;28;97961;-76
2021/06/29 10:44:26;;;;;;;2.78;2.28;;;;;;;30.46;41.30;100215.88;4899936;28;98019;-76
2021/06/29 10:46:55;;;;;;;2.97;2.15;;;;;;;30.72;40.52;100197.78;4866982;28;111733;-76
2021/06/29 10:49:42;;;;;;;3.28;2.45;;;;;;;31.82;39.36;100192.22;4898909;28;98011;-76
2021/06/29 10:52:27;;;;;;;4.55;2.40;;;;;;;33.21;37.29;100199.19;4896567;28;98103;-78
2021/06/29 10:55:18;;;;;;;3.53;2.58;;;;;;;32.18;37.75;100198.88;4902012;28;98081;-76
2021/06/29 10:57:49;;;;;;;2.17;1.98;;;;;;;30.32;40.48;100200.09;4912232;28;98469;-77
2021/06/29 11:00:21;;;;;;;5.20;2.47;;;;;;;29.66;42.88;100191.72;4898807;28;101502;-77
2021/06/29 11:02:58;;;;;;;3.90;2.50;;;;;;;29.81;43.17;100196.00;4911508;28;98444;-76
2021/06/29 11:05:32;;;;;;;4.55;2.60;;;;;;;30.08;42.45;100197.03;4904543;28;98399;-76
2021/06/29 11:08:14;;;;;;;4.78;2.45;;;;;;;30.40;41.41;100193.28;4899343;28;98127;-76
2021/06/29 11:10:50;;;;;;;3.08;2.83;;;;;;;32.25;37.12;100190.44;4917400;28;98495;-76
2021/06/29 11:13:18;;;;;;;2.90;2.60;;;;;;;32.95;36.00;100174.97;4903016;28;97801;-77
2021/06/29 11:15:52;;;;;;;3.38;2.35;;;;;;;31.07;40.39;100179.19;4918811;28;97907;-76
2021/06/29 11:18:21;;;;;;;3.40;2.58;;;;;;;31.92;37.62;100178.19;4901694;28;98276;-76
2021/06/29 11:20:53;;;;;;;2.90;2.70;;;;;;;31.12;39.83;100175.94;4898937;28;99161;-76
2021/06/29 11:23:23;;;;;;;3.38;3.08;;;;;;;30.02;41.51;100175.66;4892751;28;98406;-76
2021/06/29 11:25:54;;;;;;;3.58;3.17;;;;;;;31.42;37.65;100166.91;4902235;28;97866;-76